Brunswick, GA (31523)

3:22 AM EST on March 06, 2015 (GMT -0500)
Glynco Jetport | Change Station
CLOSE
Current Station
Airport
Location: Brunswick,
Elevation: 26 ft
Nearby Weather Stations
Active Advisory: Flood Warning

Elev 26 ft 31.26 °N, 81.47 °W | Updated 7 minutes ago

Overcast
Overcast
52 °F
Feels Like 52 °F
N
5
Wind Variable Wind from NNW

Today
High -- | Low -- °F
--% Chance of Precip.
Yesterday
High -- | Low -- °F
Precip. -- in
6:47 AM 6:27 PM
Full, 100% visible
Pressure 30.23 in
Visibility 10.0 miles
Clouds Overcast 1400 ft
Dew Point 46 °F
Humidity 82%
Rainfall 0.00 in
Snow Depth Not available.
UV 0 out of 12
Pollen 10.50 out of 12
Air Quality Not available.
Flu Activity Not available.
METAR KBQK 060815Z AUTO 34004KT 10SM OVC014 11/08 A3023 RMK AO1

More Conditions Fewer Conditions

Pressure 30.23 in
Visibility 10.0 miles
Clouds Overcast 1400 ft
Dew Point 46 °F
Humidity 82%
Rainfall 0.00 in
Snow Depth Not available.
UV 0 out of 12
Pollen 10.50 out of 12
Air Quality Not available.
Flu Activity Not available.
METAR KBQK 060815Z AUTO 34004KT 10SM OVC014 11/08 A3023 RMK AO1

More Conditions Fewer Conditions

10-Day Weather Forecast

Almanac

Astronomy

Mar. 06, 2015 Rise Set
Actual Time
Civil Twilight
Nautical Twilight
Astronomical Twilight
Moon
Length of Visible Light
Length of Day
Tomorrow will be .
, % of the Moon is Illuminated

Today's Extremes

State Highs State Lows

Community

WunderPhotos

Upload Photos

1,803,206 photos uploaded!

WunderBlogs® & News

Nearby

Air Quality

  Air Quality AQ Index Pollutant
Not available.

Snow Depth

Station Depth Elevation

Earthquake Activity

City Distance Mag. Time & Date
Minimum magnitude displayed is 2.5.

Coastal Water Temperatures

Place Temperature

Nearby Weather Stations

Flood Warning
Statement as of 9:49 PM EST on March 05, 2015

The Flood Warning continues for
the Altamaha river at Everett city.
* Until further notice... or until the warning is cancelled.
* At 7:15 PM Thursday the stage was 12.2 feet.
* Minor flooding is occurring and moderate flooding is forecast.
* Flood stage is 12.0 feet.
* Forecast... the river will continue rising to near 13.0 feet by
Monday evening then begin falling.
* Impact... at 13.0 feet... water begins to encroach upon Altamaha Park
Road and Pennick Road. Portions of Altamaha Park become inundated.
* Impact... at 12.0 feet... agricultural and Timber lands flooded. Water
begins to encroach upon Altamaha Park.
* Impact... at 10.0 feet... river begins coming out of channel banks
inundating low lying bottomlands.






               Fld observed 7am EST / 8am EDT forecast
location stg stg day time Fri Sat sun Mon Tue

Altamaha
Everett cit 12 12.2 Thu 07 PM 12.3 12.6 12.9 12.9 12.9



Lat... Lon 3152 8172 3139 8162 3130 8144 3138 8142 3143 8155 3155 8162